Terminal Aerodrome Forecast
Issued by NWS

Home | Current Version | Previous Version | Text Only | Print | Product List | Glossary On
Versions: 1 2 3 4 5 6 7 8 9 10 11 12
000
FTUS46 KSEW 272320
TAFBFI
TAF
KBFI 272320Z 2800/2824 26005KT P6SM BKN250
     FM280600 18003KT P6SM BKN100 OVC140
     FM281400 16005KT P6SM -RA BKN040 OVC060
     FM281900 19008KT P6SM SCT040 BKN060 PROB30 2819/2824 -RA=

USA.gov is the U.S. government's official web portal to all federal, state and local government web resources and services.